sensor_id;sensor_type;location;lat;lon;timestamp;P1;durP1;ratioP1;P2;durP2;ratioP2
24409;SDS011;12543;53.364;-1.504;2023-10-09T00:02:48;3.50;;;2.58;;
24409;SDS011;12543;53.364;-1.504;2023-10-09T00:05:16;3.45;;;2.72;;
24409;SDS011;12543;53.364;-1.504;2023-10-09T00:07:50;3.00;;;2.50;;
24409;SDS011;12543;53.364;-1.504;2023-10-09T00:10:22;3.00;;;2.53;;
24409;SDS011;12543;53.364;-1.504;2023-10-09T00:13:01;3.17;;;2.38;;
24409;SDS011;12543;53.364;-1.504;2023-10-09T00:15:29;3.33;;;2.55;;
24409;SDS011;12543;53.364;-1.504;2023-10-09T00:18:00;4.75;;;2.65;;
24409;SDS011;12543;53.364;-1.504;2023-10-09T00:20:28;4.55;;;2.58;;
24409;SDS011;12543;53.364;-1.504;2023-10-09T00:23:05;3.35;;;2.53;;
24409;SDS011;12543;53.364;-1.504;2023-10-09T00:25:39;3.72;;;2.92;;
24409;SDS011;12543;53.364;-1.504;2023-10-09T00:28:14;2.50;;;2.30;;
24409;SDS011;12543;53.364;-1.504;2023-10-09T00:30:45;3.28;;;2.30;;
24409;SDS011;12543;53.364;-1.504;2023-10-09T00:33:13;2.70;;;2.35;;
24409;SDS011;12543;53.364;-1.504;2023-10-09T00:35:49;5.07;;;2.95;;
24409;SDS011;12543;53.364;-1.504;2023-10-09T00:38:33;5.20;;;2.88;;
24409;SDS011;12543;53.364;-1.504;2023-10-09T00:41:06;4.10;;;3.13;;
24409;SDS011;12543;53.364;-1.504;2023-10-09T00:43:40;3.05;;;2.25;;
24409;SDS011;12543;53.364;-1.504;2023-10-09T00:46:10;3.00;;;2.40;;
24409;SDS011;12543;53.364;-1.504;2023-10-09T00:48:48;7.82;;;3.00;;
24409;SDS011;12543;53.364;-1.504;2023-10-09T00:51:21;4.03;;;2.50;;
24409;SDS011;12543;53.364;-1.504;2023-10-09T00:53:55;3.92;;;2.78;;
24409;SDS011;12543;53.364;-1.504;2023-10-09T00:56:26;3.72;;;2.38;;
24409;SDS011;12543;53.364;-1.504;2023-10-09T01:03:53;4.78;;;2.53;;
24409;SDS011;12543;53.364;-1.504;2023-10-09T01:06:26;4.78;;;2.92;;
24409;SDS011;12543;53.364;-1.504;2023-10-09T01:09:05;3.42;;;2.72;;
24409;SDS011;12543;53.364;-1.504;2023-10-09T01:11:41;5.40;;;3.00;;
24409;SDS011;12543;53.364;-1.504;2023-10-09T01:14:27;4.03;;;2.92;;
24409;SDS011;12543;53.364;-1.504;2023-10-09T01:16:54;4.30;;;3.20;;
24409;SDS011;12543;53.364;-1.504;2023-10-09T01:19:22;3.53;;;2.67;;
24409;SDS011;12543;53.364;-1.504;2023-10-09T01:21:51;3.40;;;2.30;;
24409;SDS011;12543;53.364;-1.504;2023-10-09T01:24:19;5.75;;;2.90;;
24409;SDS011;12543;53.364;-1.504;2023-10-09T01:26:47;5.15;;;3.25;;
24409;SDS011;12543;53.364;-1.504;2023-10-09T01:29:17;4.43;;;2.70;;
24409;SDS011;12543;53.364;-1.504;2023-10-09T01:31:53;4.03;;;2.80;;
24409;SDS011;12543;53.364;-1.504;2023-10-09T01:34:31;3.42;;;2.40;;
24409;SDS011;12543;53.364;-1.504;2023-10-09T01:37:09;4.53;;;2.58;;
24409;SDS011;12543;53.364;-1.504;2023-10-09T01:39:50;4.53;;;2.67;;
24409;SDS011;12543;53.364;-1.504;2023-10-09T01:45:00;5.15;;;2.90;;
24409;SDS011;12543;53.364;-1.504;2023-10-09T01:47:38;5.20;;;3.28;;
24409;SDS011;12543;53.364;-1.504;2023-10-09T01:50:07;4.10;;;2.83;;
24409;SDS011;12543;53.364;-1.504;2023-10-09T01:52:51;4.47;;;3.05;;
24409;SDS011;12543;53.364;-1.504;2023-10-09T01:55:19;3.90;;;2.70;;
24409;SDS011;12543;53.364;-1.504;2023-10-09T01:58:16;4.57;;;3.05;;
24409;SDS011;12543;53.364;-1.504;2023-10-09T02:00:50;4.00;;;2.78;;
24409;SDS011;12543;53.364;-1.504;2023-10-09T02:03:28;6.68;;;2.92;;
24409;SDS011;12543;53.364;-1.504;2023-10-09T02:05:56;4.22;;;2.70;;
24409;SDS011;12543;53.364;-1.504;2023-10-09T02:08:27;4.60;;;2.78;;
24409;SDS011;12543;53.364;-1.504;2023-10-09T02:10:56;5.07;;;3.20;;
24409;SDS011;12543;53.364;-1.504;2023-10-09T02:13:23;4.60;;;2.77;;
24409;SDS011;12543;53.364;-1.504;2023-10-09T02:16:00;4.90;;;3.03;;
24409;SDS011;12543;53.364;-1.504;2023-10-09T02:18:55;3.35;;;2.45;;
24409;SDS011;12543;53.364;-1.504;2023-10-09T02:21:22;3.72;;;2.50;;
24409;SDS011;12543;53.364;-1.504;2023-10-09T02:24:01;3.42;;;2.38;;
24409;SDS011;12543;53.364;-1.504;2023-10-09T02:26:35;4.63;;;3.05;;
24409;SDS011;12543;53.364;-1.504;2023-10-09T02:29:18;4.57;;;2.33;;
24409;SDS011;12543;53.364;-1.504;2023-10-09T02:31:52;4.75;;;2.60;;
24409;SDS011;12543;53.364;-1.504;2023-10-09T02:34:28;5.00;;;3.05;;
24409;SDS011;12543;53.364;-1.504;2023-10-09T02:36:56;4.38;;;2.38;;
24409;SDS011;12543;53.364;-1.504;2023-10-09T02:39:32;4.35;;;2.97;;
24409;SDS011;12543;53.364;-1.504;2023-10-09T02:42:10;3.97;;;2.50;;
24409;SDS011;12543;53.364;-1.504;2023-10-09T02:44:41;4.18;;;2.70;;
24409;SDS011;12543;53.364;-1.504;2023-10-09T02:47:13;3.15;;;2.85;;
24409;SDS011;12543;53.364;-1.504;2023-10-09T02:50:05;3.55;;;2.65;;
24409;SDS011;12543;53.364;-1.504;2023-10-09T02:52:48;4.35;;;2.95;;
24409;SDS011;12543;53.364;-1.504;2023-10-09T02:55:25;6.03;;;2.75;;
24409;SDS011;12543;53.364;-1.504;2023-10-09T02:57:54;3.80;;;2.50;;
24409;SDS011;12543;53.364;-1.504;2023-10-09T03:00:51;4.75;;;2.28;;
24409;SDS011;12543;53.364;-1.504;2023-10-09T03:03:18;3.22;;;2.10;;
24409;SDS011;12543;53.364;-1.504;2023-10-09T03:05:47;4.53;;;2.97;;
24409;SDS011;12543;53.364;-1.504;2023-10-09T03:08:16;4.93;;;2.47;;
24409;SDS011;12543;53.364;-1.504;2023-10-09T03:10:46;4.35;;;2.67;;
24409;SDS011;12543;53.364;-1.504;2023-10-09T03:13:14;4.97;;;3.00;;
24409;SDS011;12543;53.364;-1.504;2023-10-09T03:15:47;4.88;;;2.78;;
24409;SDS011;12543;53.364;-1.504;2023-10-09T03:18:18;5.03;;;2.72;;
24409;SDS011;12543;53.364;-1.504;2023-10-09T03:20:47;5.25;;;3.13;;
24409;SDS011;12543;53.364;-1.504;2023-10-09T03:23:14;7.20;;;2.97;;
24409;SDS011;12543;53.364;-1.504;2023-10-09T03:25:42;3.97;;;2.40;;
24409;SDS011;12543;53.364;-1.504;2023-10-09T03:28:11;4.35;;;2.63;;
24409;SDS011;12543;53.364;-1.504;2023-10-09T03:30:41;3.22;;;2.25;;
24409;SDS011;12543;53.364;-1.504;2023-10-09T03:33:13;4.15;;;2.40;;
24409;SDS011;12543;53.364;-1.504;2023-10-09T03:35:42;3.10;;;2.30;;
24409;SDS011;12543;53.364;-1.504;2023-10-09T03:38:10;2.97;;;2.20;;
24409;SDS011;12543;53.364;-1.504;2023-10-09T03:40:43;3.55;;;2.30;;
24409;SDS011;12543;53.364;-1.504;2023-10-09T03:43:11;3.42;;;2.10;;
24409;SDS011;12543;53.364;-1.504;2023-10-09T03:45:38;3.20;;;2.20;;
24409;SDS011;12543;53.364;-1.504;2023-10-09T03:48:11;3.97;;;2.40;;
24409;SDS011;12543;53.364;-1.504;2023-10-09T03:50:59;4.25;;;2.28;;
24409;SDS011;12543;53.364;-1.504;2023-10-09T03:56:09;4.05;;;2.33;;
24409;SDS011;12543;53.364;-1.504;2023-10-09T03:58:40;3.63;;;2.30;;
24409;SDS011;12543;53.364;-1.504;2023-10-09T04:01:09;2.60;;;2.20;;
24409;SDS011;12543;53.364;-1.504;2023-10-09T04:03:43;3.42;;;2.58;;
24409;SDS011;12543;53.364;-1.504;2023-10-09T04:06:11;4.32;;;2.40;;
24409;SDS011;12543;53.364;-1.504;2023-10-09T04:08:39;3.70;;;2.70;;
24409;SDS011;12543;53.364;-1.504;2023-10-09T04:11:16;5.73;;;2.40;;
24409;SDS011;12543;53.364;-1.504;2023-10-09T04:13:44;5.00;;;2.97;;
24409;SDS011;12543;53.364;-1.504;2023-10-09T04:16:16;4.90;;;2.90;;
24409;SDS011;12543;53.364;-1.504;2023-10-09T04:19:02;2.88;;;2.40;;
24409;SDS011;12543;53.364;-1.504;2023-10-09T04:21:37;3.03;;;2.33;;
24409;SDS011;12543;53.364;-1.504;2023-10-09T04:24:05;3.77;;;2.30;;
24409;SDS011;12543;53.364;-1.504;2023-10-09T04:26:36;3.78;;;2.22;;
24409;SDS011;12543;53.364;-1.504;2023-10-09T04:29:04;4.25;;;2.55;;
24409;SDS011;12543;53.364;-1.504;2023-10-09T04:31:32;4.32;;;2.72;;
24409;SDS011;12543;53.364;-1.504;2023-10-09T04:34:04;3.20;;;2.30;;
24409;SDS011;12543;53.364;-1.504;2023-10-09T04:36:55;2.90;;;2.15;;
24409;SDS011;12543;53.364;-1.504;2023-10-09T04:39:27;4.32;;;2.55;;
24409;SDS011;12543;53.364;-1.504;2023-10-09T04:41:58;3.88;;;2.50;;
24409;SDS011;12543;53.364;-1.504;2023-10-09T04:44:46;3.92;;;2.60;;
24409;SDS011;12543;53.364;-1.504;2023-10-09T04:47:40;4.05;;;2.60;;
24409;SDS011;12543;53.364;-1.504;2023-10-09T04:50:25;5.63;;;2.90;;
24409;SDS011;12543;53.364;-1.504;2023-10-09T04:52:55;4.20;;;2.40;;
24409;SDS011;12543;53.364;-1.504;2023-10-09T04:55:31;3.90;;;2.63;;
24409;SDS011;12543;53.364;-1.504;2023-10-09T04:58:05;4.00;;;2.40;;
24409;SDS011;12543;53.364;-1.504;2023-10-09T05:00:39;3.17;;;2.50;;
24409;SDS011;12543;53.364;-1.504;2023-10-09T05:03:10;6.95;;;2.72;;
24409;SDS011;12543;53.364;-1.504;2023-10-09T05:05:39;5.65;;;2.50;;
24409;SDS011;12543;53.364;-1.504;2023-10-09T05:08:08;3.88;;;2.50;;
24409;SDS011;12543;53.364;-1.504;2023-10-09T05:10:49;3.63;;;2.47;;
24409;SDS011;12543;53.364;-1.504;2023-10-09T05:13:28;5.22;;;2.40;;
24409;SDS011;12543;53.364;-1.504;2023-10-09T05:16:05;3.70;;;3.08;;
24409;SDS011;12543;53.364;-1.504;2023-10-09T05:18:53;3.20;;;2.28;;
24409;SDS011;12543;53.364;-1.504;2023-10-09T05:21:26;3.22;;;2.40;;
24409;SDS011;12543;53.364;-1.504;2023-10-09T05:23:59;4.32;;;2.38;;
24409;SDS011;12543;53.364;-1.504;2023-10-09T05:26:41;4.38;;;2.30;;
24409;SDS011;12543;53.364;-1.504;2023-10-09T05:31:46;4.65;;;2.95;;
24409;SDS011;12543;53.364;-1.504;2023-10-09T05:34:24;5.45;;;2.67;;
24409;SDS011;12543;53.364;-1.504;2023-10-09T05:39:44;4.32;;;2.90;;
24409;SDS011;12543;53.364;-1.504;2023-10-09T05:45:09;4.70;;;2.57;;
24409;SDS011;12543;53.364;-1.504;2023-10-09T05:47:55;4.05;;;2.72;;
24409;SDS011;12543;53.364;-1.504;2023-10-09T05:50:25;3.70;;;1.92;;
24409;SDS011;12543;53.364;-1.504;2023-10-09T05:55:20;4.57;;;2.40;;
24409;SDS011;12543;53.364;-1.504;2023-10-09T05:57:51;4.43;;;2.38;;
24409;SDS011;12543;53.364;-1.504;2023-10-09T06:00:37;8.18;;;2.60;;
24409;SDS011;12543;53.364;-1.504;2023-10-09T06:03:23;2.60;;;1.90;;
24409;SDS011;12543;53.364;-1.504;2023-10-09T06:06:15;3.42;;;2.42;;
24409;SDS011;12543;53.364;-1.504;2023-10-09T06:09:01;4.35;;;2.47;;
24409;SDS011;12543;53.364;-1.504;2023-10-09T06:11:42;4.40;;;2.63;;
24409;SDS011;12543;53.364;-1.504;2023-10-09T06:14:16;5.10;;;2.30;;
24409;SDS011;12543;53.364;-1.504;2023-10-09T06:16:57;2.92;;;2.25;;
24409;SDS011;12543;53.364;-1.504;2023-10-09T06:19:40;4.78;;;2.30;;
24409;SDS011;12543;53.364;-1.504;2023-10-09T06:22:26;4.72;;;2.42;;
24409;SDS011;12543;53.364;-1.504;2023-10-09T06:25:25;3.15;;;2.30;;
24409;SDS011;12543;53.364;-1.504;2023-10-09T06:28:04;3.47;;;2.38;;
24409;SDS011;12543;53.364;-1.504;2023-10-09T06:30:36;4.68;;;2.15;;
24409;SDS011;12543;53.364;-1.504;2023-10-09T06:33:11;4.30;;;2.20;;
24409;SDS011;12543;53.364;-1.504;2023-10-09T06:35:59;4.60;;;2.20;;
24409;SDS011;12543;53.364;-1.504;2023-10-09T06:38:35;5.60;;;2.38;;
24409;SDS011;12543;53.364;-1.504;2023-10-09T06:41:40;4.05;;;2.45;;
24409;SDS011;12543;53.364;-1.504;2023-10-09T06:44:11;3.85;;;2.00;;
24409;SDS011;12543;53.364;-1.504;2023-10-09T06:46:59;3.92;;;2.42;;
24409;SDS011;12543;53.364;-1.504;2023-10-09T06:49:34;3.72;;;1.92;;
24409;SDS011;12543;53.364;-1.504;2023-10-09T06:52:03;3.50;;;2.00;;
24409;SDS011;12543;53.364;-1.504;2023-10-09T06:54:42;5.82;;;2.17;;
24409;SDS011;12543;53.364;-1.504;2023-10-09T06:57:16;4.70;;;1.63;;
24409;SDS011;12543;53.364;-1.504;2023-10-09T07:00:04;5.38;;;1.85;;
24409;SDS011;12543;53.364;-1.504;2023-10-09T07:02:51;3.78;;;1.80;;
24409;SDS011;12543;53.364;-1.504;2023-10-09T07:05:20;3.72;;;2.30;;
24409;SDS011;12543;53.364;-1.504;2023-10-09T07:07:47;6.55;;;2.60;;
24409;SDS011;12543;53.364;-1.504;2023-10-09T07:10:22;5.55;;;2.60;;
24409;SDS011;12543;53.364;-1.504;2023-10-09T07:12:55;3.53;;;2.38;;
24409;SDS011;12543;53.364;-1.504;2023-10-09T07:15:23;4.15;;;2.30;;
24409;SDS011;12543;53.364;-1.504;2023-10-09T07:18:09;6.78;;;2.40;;
24409;SDS011;12543;53.364;-1.504;2023-10-09T07:20:46;7.20;;;2.33;;
24409;SDS011;12543;53.364;-1.504;2023-10-09T07:23:26;6.18;;;2.30;;
24409;SDS011;12543;53.364;-1.504;2023-10-09T07:26:03;2.63;;;2.10;;
24409;SDS011;12543;53.364;-1.504;2023-10-09T07:28:46;3.00;;;1.83;;
24409;SDS011;12543;53.364;-1.504;2023-10-09T07:31:21;3.85;;;1.90;;
24409;SDS011;12543;53.364;-1.504;2023-10-09T07:33:53;4.13;;;2.50;;
24409;SDS011;12543;53.364;-1.504;2023-10-09T07:36:24;4.13;;;2.30;;
24409;SDS011;12543;53.364;-1.504;2023-10-09T07:39:02;4.63;;;2.20;;
24409;SDS011;12543;53.364;-1.504;2023-10-09T07:41:40;3.78;;;2.10;;
24409;SDS011;12543;53.364;-1.504;2023-10-09T07:44:22;2.75;;;2.10;;
24409;SDS011;12543;53.364;-1.504;2023-10-09T07:47:05;3.67;;;2.47;;
24409;SDS011;12543;53.364;-1.504;2023-10-09T07:49:46;3.97;;;2.10;;
24409;SDS011;12543;53.364;-1.504;2023-10-09T07:52:21;6.82;;;2.45;;
24409;SDS011;12543;53.364;-1.504;2023-10-09T07:54:49;5.93;;;2.65;;
24409;SDS011;12543;53.364;-1.504;2023-10-09T07:57:20;2.67;;;1.95;;
24409;SDS011;12543;53.364;-1.504;2023-10-09T07:59:56;3.53;;;1.90;;
24409;SDS011;12543;53.364;-1.504;2023-10-09T08:02:59;6.57;;;2.20;;
24409;SDS011;12543;53.364;-1.504;2023-10-09T08:05:27;5.70;;;2.60;;
24409;SDS011;12543;53.364;-1.504;2023-10-09T08:08:00;2.58;;;1.75;;
24409;SDS011;12543;53.364;-1.504;2023-10-09T08:11:03;7.40;;;3.05;;
24409;SDS011;12543;53.364;-1.504;2023-10-09T08:13:50;6.55;;;2.88;;
24409;SDS011;12543;53.364;-1.504;2023-10-09T08:16:24;4.55;;;2.50;;
24409;SDS011;12543;53.364;-1.504;2023-10-09T08:19:03;4.65;;;2.65;;
24409;SDS011;12543;53.364;-1.504;2023-10-09T08:21:49;5.88;;;2.65;;
24409;SDS011;12543;53.364;-1.504;2023-10-09T08:24:36;4.88;;;2.95;;
24409;SDS011;12543;53.364;-1.504;2023-10-09T08:27:10;4.22;;;2.65;;
24409;SDS011;12543;53.364;-1.504;2023-10-09T08:30:00;5.60;;;2.92;;
24409;SDS011;12543;53.364;-1.504;2023-10-09T08:32:48;4.55;;;2.88;;
24409;SDS011;12543;53.364;-1.504;2023-10-09T08:35:32;5.57;;;3.08;;
24409;SDS011;12543;53.364;-1.504;2023-10-09T08:38:02;3.90;;;2.15;;
24409;SDS011;12543;53.364;-1.504;2023-10-09T08:40:39;3.60;;;2.50;;
24409;SDS011;12543;53.364;-1.504;2023-10-09T08:43:14;3.50;;;2.45;;
24409;SDS011;12543;53.364;-1.504;2023-10-09T08:46:04;3.55;;;2.20;;
24409;SDS011;12543;53.364;-1.504;2023-10-09T08:48:31;4.72;;;2.30;;
24409;SDS011;12543;53.364;-1.504;2023-10-09T08:53:28;4.75;;;2.03;;
24409;SDS011;12543;53.364;-1.504;2023-10-09T08:55:57;6.63;;;2.30;;
24409;SDS011;12543;53.364;-1.504;2023-10-09T08:58:25;4.75;;;2.15;;
24409;SDS011;12543;53.364;-1.504;2023-10-09T09:01:01;3.60;;;2.42;;
24409;SDS011;12543;53.364;-1.504;2023-10-09T09:03:37;3.30;;;2.10;;
24409;SDS011;12543;53.364;-1.504;2023-10-09T09:06:05;4.05;;;2.17;;
24409;SDS011;12543;53.364;-1.504;2023-10-09T09:08:33;2.60;;;1.60;;
24409;SDS011;12543;53.364;-1.504;2023-10-09T09:11:07;2.72;;;1.60;;
24409;SDS011;12543;53.364;-1.504;2023-10-09T09:13:39;3.50;;;2.00;;
24409;SDS011;12543;53.364;-1.504;2023-10-09T09:16:17;4.72;;;2.20;;
24409;SDS011;12543;53.364;-1.504;2023-10-09T09:21:18;4.43;;;2.00;;
24409;SDS011;12543;53.364;-1.504;2023-10-09T09:24:01;2.28;;;1.70;;
24409;SDS011;12543;53.364;-1.504;2023-10-09T09:26:36;2.95;;;1.80;;
24409;SDS011;12543;53.364;-1.504;2023-10-09T09:29:04;3.67;;;1.73;;
24409;SDS011;12543;53.364;-1.504;2023-10-09T09:34:08;2.13;;;1.70;;
24409;SDS011;12543;53.364;-1.504;2023-10-09T09:37:21;4.57;;;2.17;;
24409;SDS011;12543;53.364;-1.504;2023-10-09T09:39:57;3.20;;;1.77;;
24409;SDS011;12543;53.364;-1.504;2023-10-09T09:42:27;1.60;;;1.40;;
24409;SDS011;12543;53.364;-1.504;2023-10-09T09:44:58;3.38;;;1.73;;
24409;SDS011;12543;53.364;-1.504;2023-10-09T09:47:28;3.55;;;1.73;;
24409;SDS011;12543;53.364;-1.504;2023-10-09T09:49:57;3.03;;;1.52;;
24409;SDS011;12543;53.364;-1.504;2023-10-09T09:52:31;2.78;;;1.40;;
24409;SDS011;12543;53.364;-1.504;2023-10-09T09:55:09;9.93;;;5.40;;
24409;SDS011;12543;53.364;-1.504;2023-10-09T09:57:46;16.10;;;9.40;;
24409;SDS011;12543;53.364;-1.504;2023-10-09T10:00:22;21.83;;;12.38;;
24409;SDS011;12543;53.364;-1.504;2023-10-09T10:02:59;38.15;;;23.13;;
24409;SDS011;12543;53.364;-1.504;2023-10-09T10:05:28;61.47;;;36.95;;
24409;SDS011;12543;53.364;-1.504;2023-10-09T10:07:57;94.82;;;56.05;;
24409;SDS011;12543;53.364;-1.504;2023-10-09T10:13:00;67.07;;;42.03;;
24409;SDS011;12543;53.364;-1.504;2023-10-09T10:18:14;47.03;;;30.00;;
24409;SDS011;12543;53.364;-1.504;2023-10-09T10:23:32;47.38;;;30.25;;
24409;SDS011;12543;53.364;-1.504;2023-10-09T10:26:19;63.72;;;40.28;;
24409;SDS011;12543;53.364;-1.504;2023-10-09T10:34:23;129.13;;;79.13;;
24409;SDS011;12543;53.364;-1.504;2023-10-09T10:36:53;125.75;;;76.50;;
24409;SDS011;12543;53.364;-1.504;2023-10-09T10:39:26;116.65;;;71.32;;
24409;SDS011;12543;53.364;-1.504;2023-10-09T10:42:14;96.95;;;60.25;;
24409;SDS011;12543;53.364;-1.504;2023-10-09T10:45:01;61.70;;;39.88;;
24409;SDS011;12543;53.364;-1.504;2023-10-09T10:47:35;59.13;;;36.25;;
24409;SDS011;12543;53.364;-1.504;2023-10-09T10:50:03;65.63;;;43.80;;
24409;SDS011;12543;53.364;-1.504;2023-10-09T10:53:11;134.35;;;86.10;;
24409;SDS011;12543;53.364;-1.504;2023-10-09T10:55:55;133.77;;;83.32;;
24409;SDS011;12543;53.364;-1.504;2023-10-09T10:58:43;80.90;;;52.55;;
24409;SDS011;12543;53.364;-1.504;2023-10-09T11:01:37;47.30;;;31.20;;
24409;SDS011;12543;53.364;-1.504;2023-10-09T11:04:25;28.60;;;20.00;;
24409;SDS011;12543;53.364;-1.504;2023-10-09T11:06:57;23.60;;;15.68;;
24409;SDS011;12543;53.364;-1.504;2023-10-09T11:09:56;17.55;;;12.57;;
24409;SDS011;12543;53.364;-1.504;2023-10-09T11:12:30;13.77;;;10.32;;
24409;SDS011;12543;53.364;-1.504;2023-10-09T11:15:06;13.73;;;9.80;;
24409;SDS011;12543;53.364;-1.504;2023-10-09T11:18:07;11.95;;;8.63;;
24409;SDS011;12543;53.364;-1.504;2023-10-09T11:20:43;11.75;;;8.48;;
24409;SDS011;12543;53.364;-1.504;2023-10-09T11:23:43;10.88;;;8.68;;
24409;SDS011;12543;53.364;-1.504;2023-10-09T11:26:17;13.98;;;9.93;;
24409;SDS011;12543;53.364;-1.504;2023-10-09T11:32:05;24.52;;;17.00;;
24409;SDS011;12543;53.364;-1.504;2023-10-09T11:34:36;28.95;;;20.52;;
24409;SDS011;12543;53.364;-1.504;2023-10-09T11:39:32;34.42;;;24.27;;
24409;SDS011;12543;53.364;-1.504;2023-10-09T11:42:06;33.10;;;22.83;;
24409;SDS011;12543;53.364;-1.504;2023-10-09T11:44:35;33.90;;;21.42;;
24409;SDS011;12543;53.364;-1.504;2023-10-09T11:47:06;33.05;;;21.35;;
24409;SDS011;12543;53.364;-1.504;2023-10-09T11:49:54;40.33;;;25.77;;
24409;SDS011;12543;53.364;-1.504;2023-10-09T11:52:29;43.78;;;29.08;;
24409;SDS011;12543;53.364;-1.504;2023-10-09T11:55:05;41.45;;;27.20;;
24409;SDS011;12543;53.364;-1.504;2023-10-09T11:57:43;36.90;;;25.05;;
24409;SDS011;12543;53.364;-1.504;2023-10-09T12:00:10;35.85;;;24.35;;
24409;SDS011;12543;53.364;-1.504;2023-10-09T12:02:57;36.67;;;24.33;;
24409;SDS011;12543;53.364;-1.504;2023-10-09T12:05:32;32.03;;;22.50;;
24409;SDS011;12543;53.364;-1.504;2023-10-09T12:10:28;33.05;;;22.38;;
24409;SDS011;12543;53.364;-1.504;2023-10-09T12:12:56;29.42;;;19.98;;
24409;SDS011;12543;53.364;-1.504;2023-10-09T12:15:31;25.92;;;19.05;;
24409;SDS011;12543;53.364;-1.504;2023-10-09T12:18:04;27.90;;;19.70;;
24409;SDS011;12543;53.364;-1.504;2023-10-09T12:20:38;31.95;;;22.08;;
24409;SDS011;12543;53.364;-1.504;2023-10-09T12:23:06;31.90;;;21.98;;
24409;SDS011;12543;53.364;-1.504;2023-10-09T12:25:34;35.90;;;23.30;;
24409;SDS011;12543;53.364;-1.504;2023-10-09T12:30:29;43.70;;;28.50;;
24409;SDS011;12543;53.364;-1.504;2023-10-09T12:32:57;44.30;;;28.83;;
24409;SDS011;12543;53.364;-1.504;2023-10-09T12:37:52;41.92;;;27.33;;
24409;SDS011;12543;53.364;-1.504;2023-10-09T12:40:24;29.88;;;20.23;;
24409;SDS011;12543;53.364;-1.504;2023-10-09T12:42:55;21.20;;;14.20;;
24409;SDS011;12543;53.364;-1.504;2023-10-09T12:45:25;18.10;;;12.27;;
24409;SDS011;12543;53.364;-1.504;2023-10-09T12:47:54;23.60;;;15.15;;
24409;SDS011;12543;53.364;-1.504;2023-10-09T12:50:35;28.38;;;17.30;;
24409;SDS011;12543;53.364;-1.504;2023-10-09T12:53:11;33.63;;;19.83;;
24409;SDS011;12543;53.364;-1.504;2023-10-09T12:55:44;36.63;;;21.90;;
24409;SDS011;12543;53.364;-1.504;2023-10-09T12:58:12;44.70;;;26.70;;
24409;SDS011;12543;53.364;-1.504;2023-10-09T13:00:44;44.92;;;27.48;;
24409;SDS011;12543;53.364;-1.504;2023-10-09T13:03:16;39.08;;;24.75;;
24409;SDS011;12543;53.364;-1.504;2023-10-09T13:05:52;36.90;;;23.52;;
24409;SDS011;12543;53.364;-1.504;2023-10-09T13:08:26;38.63;;;24.77;;
24409;SDS011;12543;53.364;-1.504;2023-10-09T13:11:08;43.80;;;28.70;;
24409;SDS011;12543;53.364;-1.504;2023-10-09T13:13:43;58.35;;;37.83;;
24409;SDS011;12543;53.364;-1.504;2023-10-09T13:16:14;54.05;;;34.25;;
24409;SDS011;12543;53.364;-1.504;2023-10-09T13:21:20;70.45;;;45.13;;
24409;SDS011;12543;53.364;-1.504;2023-10-09T13:23:48;78.40;;;51.63;;
24409;SDS011;12543;53.364;-1.504;2023-10-09T13:26:21;86.53;;;57.38;;
24409;SDS011;12543;53.364;-1.504;2023-10-09T13:29:00;99.90;;;63.92;;
24409;SDS011;12543;53.364;-1.504;2023-10-09T13:31:30;91.88;;;60.50;;
24409;SDS011;12543;53.364;-1.504;2023-10-09T13:34:01;90.53;;;58.08;;
24409;SDS011;12543;53.364;-1.504;2023-10-09T13:36:30;85.90;;;54.17;;
24409;SDS011;12543;53.364;-1.504;2023-10-09T13:39:03;102.38;;;64.47;;
24409;SDS011;12543;53.364;-1.504;2023-10-09T13:41:53;118.80;;;76.82;;
24409;SDS011;12543;53.364;-1.504;2023-10-09T13:44:28;134.65;;;87.70;;
24409;SDS011;12543;53.364;-1.504;2023-10-09T13:46:56;128.50;;;83.13;;
24409;SDS011;12543;53.364;-1.504;2023-10-09T13:49:25;121.18;;;78.05;;
24409;SDS011;12543;53.364;-1.504;2023-10-09T13:52:01;115.63;;;72.88;;
24409;SDS011;12543;53.364;-1.504;2023-10-09T13:54:29;105.80;;;67.55;;
24409;SDS011;12543;53.364;-1.504;2023-10-09T13:57:04;97.00;;;62.10;;
24409;SDS011;12543;53.364;-1.504;2023-10-09T13:59:32;94.18;;;61.00;;
24409;SDS011;12543;53.364;-1.504;2023-10-09T14:02:02;81.57;;;53.40;;
24409;SDS011;12543;53.364;-1.504;2023-10-09T14:04:36;79.10;;;51.42;;
24409;SDS011;12543;53.364;-1.504;2023-10-09T14:07:04;79.07;;;51.67;;
24409;SDS011;12543;53.364;-1.504;2023-10-09T14:09:35;77.25;;;49.50;;
24409;SDS011;12543;53.364;-1.504;2023-10-09T14:12:06;74.63;;;48.67;;
24409;SDS011;12543;53.364;-1.504;2023-10-09T14:14:41;75.53;;;47.60;;
24409;SDS011;12543;53.364;-1.504;2023-10-09T14:17:15;74.80;;;47.08;;
24409;SDS011;12543;53.364;-1.504;2023-10-09T14:19:51;74.80;;;49.30;;
24409;SDS011;12543;53.364;-1.504;2023-10-09T14:22:20;67.32;;;46.10;;
24409;SDS011;12543;53.364;-1.504;2023-10-09T14:24:48;70.65;;;45.25;;
24409;SDS011;12543;53.364;-1.504;2023-10-09T14:27:25;68.03;;;43.83;;
24409;SDS011;12543;53.364;-1.504;2023-10-09T14:29:56;61.25;;;40.45;;
24409;SDS011;12543;53.364;-1.504;2023-10-09T14:32:27;56.97;;;37.92;;
24409;SDS011;12543;53.364;-1.504;2023-10-09T14:35:04;51.22;;;32.85;;
24409;SDS011;12543;53.364;-1.504;2023-10-09T14:37:40;51.05;;;32.95;;
24409;SDS011;12543;53.364;-1.504;2023-10-09T14:40:08;45.67;;;29.27;;
24409;SDS011;12543;53.364;-1.504;2023-10-09T14:42:39;38.60;;;26.88;;
24409;SDS011;12543;53.364;-1.504;2023-10-09T14:45:11;43.47;;;28.55;;
24409;SDS011;12543;53.364;-1.504;2023-10-09T14:47:44;51.05;;;33.70;;
24409;SDS011;12543;53.364;-1.504;2023-10-09T14:50:13;54.67;;;37.10;;
24409;SDS011;12543;53.364;-1.504;2023-10-09T14:52:41;64.47;;;43.65;;
24409;SDS011;12543;53.364;-1.504;2023-10-09T14:55:09;63.75;;;44.53;;
24409;SDS011;12543;53.364;-1.504;2023-10-09T15:00:05;73.22;;;48.95;;
24409;SDS011;12543;53.364;-1.504;2023-10-09T15:02:40;76.82;;;51.90;;
24409;SDS011;12543;53.364;-1.504;2023-10-09T15:05:08;78.30;;;52.60;;
24409;SDS011;12543;53.364;-1.504;2023-10-09T15:07:38;79.28;;;52.25;;
24409;SDS011;12543;53.364;-1.504;2023-10-09T15:10:10;60.08;;;40.95;;
24409;SDS011;12543;53.364;-1.504;2023-10-09T15:12:42;35.38;;;24.80;;
24409;SDS011;12543;53.364;-1.504;2023-10-09T15:15:13;22.80;;;15.43;;
24409;SDS011;12543;53.364;-1.504;2023-10-09T15:17:42;14.05;;;10.10;;
24409;SDS011;12543;53.364;-1.504;2023-10-09T15:20:14;9.13;;;6.43;;
24409;SDS011;12543;53.364;-1.504;2023-10-09T15:22:45;4.95;;;3.90;;
24409;SDS011;12543;53.364;-1.504;2023-10-09T15:25:13;5.90;;;3.13;;
24409;SDS011;12543;53.364;-1.504;2023-10-09T15:27:44;3.92;;;3.00;;
24409;SDS011;12543;53.364;-1.504;2023-10-09T15:30:12;5.60;;;2.53;;
24409;SDS011;12543;53.364;-1.504;2023-10-09T15:32:44;4.43;;;2.97;;
24409;SDS011;12543;53.364;-1.504;2023-10-09T15:35:11;4.30;;;2.90;;
24409;SDS011;12543;53.364;-1.504;2023-10-09T15:37:44;3.40;;;2.90;;
24409;SDS011;12543;53.364;-1.504;2023-10-09T15:40:12;2.47;;;2.28;;
24409;SDS011;12543;53.364;-1.504;2023-10-09T15:42:45;2.78;;;2.50;;
24409;SDS011;12543;53.364;-1.504;2023-10-09T15:45:17;2.42;;;2.05;;
24409;SDS011;12543;53.364;-1.504;2023-10-09T15:47:49;3.25;;;2.55;;
24409;SDS011;12543;53.364;-1.504;2023-10-09T15:50:20;4.18;;;3.03;;
24409;SDS011;12543;53.364;-1.504;2023-10-09T15:52:52;3.30;;;2.53;;
24409;SDS011;12543;53.364;-1.504;2023-10-09T15:55:21;2.65;;;2.30;;
24409;SDS011;12543;53.364;-1.504;2023-10-09T15:57:51;3.00;;;2.10;;
24409;SDS011;12543;53.364;-1.504;2023-10-09T16:00:19;2.67;;;2.47;;
24409;SDS011;12543;53.364;-1.504;2023-10-09T16:02:47;3.47;;;2.53;;
24409;SDS011;12543;53.364;-1.504;2023-10-09T16:05:15;4.50;;;2.30;;
24409;SDS011;12543;53.364;-1.504;2023-10-09T16:07:43;3.58;;;2.70;;
24409;SDS011;12543;53.364;-1.504;2023-10-09T16:10:11;3.55;;;2.25;;
24409;SDS011;12543;53.364;-1.504;2023-10-09T16:12:39;3.80;;;2.75;;